Saglek Bay, Canada
Current Conditions -  °F | °C
As of 5:00 AM on Monday 22 Dec 2014 (Local Time) from CYDP Reporting Station
Clear Clear  
Wind Chill: 12°   Ceiling: Unl
Heat Index: 12°   Visibility: 15mi
Dew Point:   Wind: 2mph
Humidity: 67%   Direction: 360°N
Pressure: 30.29"   Gusts: NA
Location:  58.49°N, 62.59°W
Report Text: CYDP 220900Z 36002KT 15SM SKC M11/M16 A3029 RMK SLP257
Loading
Personal Weather Stations






























Interactive Weather Map New forecast layout! Learn more

10-Day Weather Forecast

Advertisements
Track Severe Weather on mobile